Station Historical Data
Daily Summary for September 22, 2017 Units:  English    Metric   Both
« Previous Day
Next Day »
Daily Weekly Monthly Yearly Custom
  High: Low: Average:
Temperature: 82.3 °F 57.4 °F 69.6 °F
Dew Point: 63.2 °F 54.4 °F 57.7 °F
Humidity: 91% 39% 68%
Wind Speed: 8.0mph 0.0mph 0.8mph
Wind Gust: 11.0mph - -
Wind- - ENE
Pressure: 30.14 in 30.06 in -
Precipitation: 0.00 in    
Historical Graphs
 
 
Tabular Data for September 22, 2017
Time Temperature Dew Point Pressure Wind Wind Speed Wind Gust Humidity Rainfall Rate (Hourly)
00:04 66.3 °F 60.3 °F 30.10 in Calm     81% 0.00 in
00:09 66.0 °F 60.0 °F 30.10 in Calm     81% 0.00 in
00:14 65.9 °F 59.9 °F 30.10 in Calm     81% 0.00 in
00:19 65.6 °F 60.0 °F 30.10 in Calm     82% 0.00 in
00:24 65.5 °F 59.9 °F 30.10 in Calm     82% 0.00 in
00:29 65.5 °F 59.9 °F 30.10 in Calm     82% 0.00 in
00:34 65.3 °F 59.3 °F 30.10 in Calm     81% 0.00 in
00:39 65.0 °F 59.4 °F 30.10 in Calm     82% 0.00 in
00:44 64.7 °F 59.1 °F 30.10 in Calm     82% 0.00 in
00:49 64.5 °F 58.9 °F 30.10 in Calm     82% 0.00 in
00:54 64.3 °F 58.7 °F 30.10 in Calm     82% 0.00 in
00:59 64.1 °F 58.8 °F 30.10 in Calm     83% 0.00 in
01:04 63.8 °F 58.5 °F 30.10 in Calm     83% 0.00 in
01:09 63.5 °F 58.2 °F 30.10 in Calm     83% 0.00 in
01:14 63.4 °F 58.5 °F 30.10 in Calm     84% 0.00 in
01:19 63.2 °F 58.3 °F 30.10 in Calm     84% 0.00 in
01:24 63.0 °F 58.1 °F 30.10 in Calm     84% 0.00 in
01:29 62.8 °F 57.9 °F 30.10 in Calm     84% 0.00 in
01:34 62.8 °F 58.2 °F 30.09 in Calm     85% 0.00 in
01:39 62.9 °F 58.3 °F 30.10 in Calm     85% 0.00 in
01:44 63.0 °F 58.4 °F 30.10 in Calm     85% 0.00 in
01:49 62.9 °F 58.3 °F 30.09 in Calm     85% 0.00 in
01:54 63.0 °F 58.4 °F 30.09 in Calm     85% 0.00 in
01:59 62.9 °F 58.3 °F 30.09 in Calm     85% 0.00 in
02:04 62.9 °F 58.3 °F 30.09 in Calm     85% 0.00 in
02:09 62.9 °F 58.3 °F 30.09 in Calm     85% 0.00 in
02:14 62.9 °F 58.0 °F 30.09 in Calm     84% 0.00 in
02:19 62.6 °F 57.7 °F 30.09 in Calm     84% 0.00 in
02:24 62.5 °F 57.9 °F 30.09 in Calm     85% 0.00 in
02:29 62.5 °F 57.9 °F 30.09 in Calm     85% 0.00 in
02:34 62.5 °F 57.9 °F 30.09 in Calm     85% 0.00 in
02:39 62.4 °F 57.8 °F 30.10 in Calm     85% 0.00 in
02:44 62.1 °F 57.5 °F 30.10 in Calm     85% 0.00 in
02:49 61.8 °F 57.2 °F 30.10 in Calm     85% 0.00 in
02:54 61.6 °F 57.0 °F 30.10 in Calm     85% 0.00 in
02:59 61.3 °F 57.1 °F 30.09 in Calm     86% 0.00 in
03:04 61.3 °F 57.1 °F 30.09 in Calm     86% 0.00 in
03:09 61.1 °F 56.9 °F 30.09 in Calm     86% 0.00 in
03:14 61.0 °F 56.8 °F 30.10 in Calm     86% 0.00 in
03:19 60.7 °F 56.5 °F 30.09 in Calm     86% 0.00 in
03:24 60.7 °F 56.5 °F 30.09 in Calm     86% 0.00 in
03:29 60.6 °F 56.7 °F 30.09 in Calm     87% 0.00 in
03:34 60.5 °F 56.3 °F 30.09 in Calm     86% 0.00 in
03:39 60.3 °F 56.4 °F 30.09 in Calm     87% 0.00 in
03:44 60.4 °F 56.5 °F 30.09 in Calm     87% 0.00 in
03:49 60.5 °F 56.6 °F 30.09 in Calm     87% 0.00 in
03:54 60.2 °F 56.3 °F 30.09 in Calm     87% 0.00 in
03:59 60.0 °F 56.1 °F 30.09 in Calm     87% 0.00 in
04:04 59.8 °F 55.9 °F 30.09 in Calm     87% 0.00 in
04:09 59.6 °F 55.7 °F 30.09 in Calm     87% 0.00 in
04:14 59.5 °F 55.6 °F 30.10 in Calm     87% 0.00 in
04:19 59.3 °F 55.7 °F 30.10 in Calm     88% 0.00 in
04:24 59.1 °F 55.5 °F 30.10 in Calm     88% 0.00 in
04:29 58.9 °F 55.4 °F 30.10 in Calm     88% 0.00 in
04:34 58.9 °F 55.4 °F 30.10 in Calm     88% 0.00 in
04:39 58.8 °F 55.6 °F 30.10 in Calm     89% 0.00 in
04:44 58.7 °F 55.5 °F 30.10 in Calm     89% 0.00 in
04:49 58.6 °F 55.4 °F 30.11 in Calm     89% 0.00 in
04:54 58.6 °F 55.4 °F 30.11 in Calm     89% 0.00 in
04:59 58.4 °F 55.2 °F 30.11 in Calm     89% 0.00 in
05:04 58.3 °F 55.1 °F 30.11 in Calm     89% 0.00 in
05:09 58.3 °F 55.4 °F 30.10 in Calm     90% 0.00 in
05:14 58.3 °F 55.4 °F 30.10 in Calm     90% 0.00 in
05:19 58.2 °F 55.3 °F 30.11 in Calm     90% 0.00 in
05:24 58.0 °F 55.1 °F 30.11 in Calm     90% 0.00 in
05:29 57.9 °F 55.0 °F 30.11 in Calm     90% 0.00 in
05:34 57.8 °F 54.9 °F 30.11 in Calm     90% 0.00 in
05:39 57.6 °F 54.7 °F 30.11 in Calm     90% 0.00 in
05:44 57.4 °F 54.5 °F 30.11 in Calm     90% 0.00 in
05:49 57.5 °F 54.6 °F 30.11 in Calm     90% 0.00 in
05:54 57.5 °F 54.6 °F 30.11 in Calm     90% 0.00 in
05:59 57.5 °F 54.6 °F 30.11 in Calm     90% 0.00 in
06:04 57.4 °F 54.5 °F 30.11 in Calm     90% 0.00 in
06:09 57.4 °F 54.5 °F 30.11 in Calm     90% 0.00 in
06:14 57.4 °F 54.8 °F 30.11 in Calm     91% 0.00 in
06:19 57.6 °F 55.0 °F 30.11 in Calm     91% 0.00 in
06:24 57.6 °F 54.7 °F 30.11 in Calm     90% 0.00 in
06:29 57.8 °F 55.2 °F 30.11 in Calm     91% 0.00 in
06:34 58.1 °F 55.5 °F 30.12 in Calm     91% 0.00 in
06:39 58.3 °F 55.7 °F 30.12 in Calm     91% 0.00 in
06:44 58.3 °F 55.7 °F 30.12 in Calm     91% 0.00 in
06:49 58.5 °F 55.9 °F 30.12 in Calm     91% 0.00 in
06:54 58.4 °F 55.5 °F 30.13 in Calm     90% 0.00 in
06:59 58.4 °F 55.8 °F 30.13 in Calm     91% 0.00 in
07:04 58.5 °F 55.9 °F 30.13 in Calm     91% 0.00 in
07:09 58.7 °F 56.1 °F 30.13 in Calm     91% 0.00 in
07:14 58.8 °F 55.9 °F 30.13 in Calm     90% 0.00 in
07:19 58.8 °F 55.9 °F 30.14 in Calm     90% 0.00 in
07:24 58.9 °F 56.0 °F 30.13 in Calm     90% 0.00 in
07:29 59.1 °F 56.2 °F 30.13 in Calm     90% 0.00 in
07:34 59.4 °F 56.5 °F 30.14 in Calm     90% 0.00 in
07:39 59.8 °F 56.6 °F 30.14 in Calm     89% 0.00 in
07:44 60.3 °F 57.0 °F 30.14 in Calm     89% 0.00 in
07:49 60.7 °F 57.1 °F 30.14 in Calm     88% 0.00 in
07:54 61.1 °F 57.2 °F 30.14 in Calm     87% 0.00 in
07:59 61.3 °F 57.1 °F 30.14 in Calm     86% 0.00 in
08:04 61.6 °F 57.4 °F 30.14 in Calm     86% 0.00 in
08:09 62.1 °F 57.5 °F 30.14 in Calm     85% 0.00 in
08:14 62.5 °F 57.6 °F 30.14 in Calm     84% 0.00 in
08:19 63.0 °F 58.1 °F 30.14 in Calm     84% 0.00 in
08:24 63.4 °F 58.1 °F 30.14 in Calm     83% 0.00 in
08:29 64.1 °F 58.5 °F 30.14 in Calm     82% 0.00 in
08:34 64.8 °F 58.8 °F 30.14 in Calm     81% 0.00 in
08:39 65.3 °F 58.6 °F 30.14 in Calm     79% 0.00 in
08:44 65.8 °F 59.1 °F 30.14 in Calm     79% 0.00 in
08:49 66.2 °F 58.8 °F 30.14 in Calm     77% 0.00 in
08:54 67.0 °F 59.5 °F 30.14 in Calm     77% 0.00 in
08:59 67.7 °F 59.5 °F 30.13 in Calm     75% 0.00 in
09:04 68.1 °F 59.9 °F 30.13 in Calm     75% 0.00 in
09:09 69.0 °F 60.4 °F 30.13 in Calm     74% 0.00 in
09:14 69.3 °F 60.7 °F 30.13 in Calm     74% 0.00 in
09:19 69.7 °F 61.0 °F 30.13 in Calm     74% 0.00 in
09:24 70.1 °F 61.4 °F 30.13 in Calm     74% 0.00 in
09:29 70.8 °F 61.7 °F 30.14 in Calm     73% 0.00 in
09:34 71.0 °F 61.9 °F 30.14 in Calm     73% 0.00 in
09:39 71.0 °F 62.3 °F 30.13 in Calm   1.0 mph 74% 0.00 in
09:44 71.0 °F 61.5 °F 30.13 in NE 4.0 mph 5.0 mph 72% 0.00 in
09:49 71.0 °F 61.5 °F 30.14 in ENE 2.0 mph 5.0 mph 72% 0.00 in
09:54 71.1 °F 61.6 °F 30.14 in Calm   5.0 mph 72% 0.00 in
09:59 71.1 °F 61.2 °F 30.14 in Calm   3.0 mph 71% 0.00 in
10:04 71.3 °F 61.4 °F 30.14 in ESE 1.0 mph 3.0 mph 71% 0.00 in
10:09 71.7 °F 61.0 °F 30.14 in Calm   3.0 mph 69% 0.00 in
10:14 71.9 °F 61.6 °F 30.14 in Calm   3.0 mph 70% 0.00 in
10:19 71.8 °F 61.1 °F 30.14 in ESE 1.0 mph 3.0 mph 69% 0.00 in
10:24 72.1 °F 61.4 °F 30.14 in Calm   2.0 mph 69% 0.00 in
10:29 72.4 °F 60.8 °F 30.14 in Calm     67% 0.00 in
10:34 72.4 °F 60.8 °F 30.14 in Calm   5.0 mph 67% 0.00 in
10:39 72.8 °F 59.9 °F 30.14 in ENE 1.0 mph 7.0 mph 64% 0.00 in
10:44 72.7 °F 59.8 °F 30.14 in ENE 2.0 mph 7.0 mph 64% 0.00 in
10:49 72.9 °F 60.0 °F 30.14 in ENE 2.0 mph 5.0 mph 64% 0.00 in
10:54 73.0 °F 60.1 °F 30.14 in NE 5.0 mph 5.0 mph 64% 0.00 in
10:59 72.9 °F 60.0 °F 30.14 in ENE 2.0 mph 5.0 mph 64% 0.00 in
11:04 73.1 °F 60.6 °F 30.14 in ENE 2.0 mph 4.0 mph 65% 0.00 in
11:09 73.7 °F 61.2 °F 30.14 in NE 1.0 mph 4.0 mph 65% 0.00 in
11:14 74.0 °F 61.9 °F 30.14 in NE 4.0 mph 4.0 mph 66% 0.00 in
11:19 74.5 °F 60.2 °F 30.14 in NNE 2.0 mph 4.0 mph 61% 0.00 in
11:24 74.4 °F 58.7 °F 30.14 in NNE 2.0 mph 7.0 mph 58% 0.00 in
11:29 74.3 °F 60.0 °F 30.14 in NE 2.0 mph 7.0 mph 61% 0.00 in
11:34 74.2 °F 58.9 °F 30.14 in NE 2.0 mph 7.0 mph 59% 0.00 in
11:39 74.3 °F 59.0 °F 30.14 in Calm   5.0 mph 59% 0.00 in
11:44 75.0 °F 60.6 °F 30.13 in Calm   5.0 mph 61% 0.00 in
11:49 75.4 °F 60.5 °F 30.13 in ENE 1.0 mph 5.0 mph 60% 0.00 in
11:54 75.8 °F 60.9 °F 30.13 in NE 1.0 mph 4.0 mph 60% 0.00 in
11:59 75.6 °F 59.3 °F 30.13 in NNE 2.0 mph 6.0 mph 57% 0.00 in
12:04 76.0 °F 58.7 °F 30.13 in ENE 4.0 mph 7.0 mph 55% 0.00 in
12:09 76.0 °F 59.2 °F 30.13 in NE 2.0 mph 8.0 mph 56% 0.00 in
12:14 76.2 °F 59.9 °F 30.13 in ENE 3.0 mph 8.0 mph 57% 0.00 in
12:19 76.8 °F 60.9 °F 30.12 in ENE 2.0 mph 5.0 mph 58% 0.00 in
12:24 77.1 °F 60.7 °F 30.12 in NE 2.0 mph 7.0 mph 57% 0.00 in
12:29 77.0 °F 61.6 °F 30.12 in Calm   4.0 mph 59% 0.00 in
12:34 77.5 °F 61.1 °F 30.12 in Calm   5.0 mph 57% 0.00 in
12:39 77.5 °F 61.1 °F 30.12 in NNE 2.0 mph 5.0 mph 57% 0.00 in
12:44 77.6 °F 61.7 °F 30.12 in NE 3.0 mph 9.0 mph 58% 0.00 in
12:49 78.2 °F 62.2 °F 30.12 in NE 3.0 mph 9.0 mph 58% 0.00 in
12:54 78.5 °F 61.0 °F 30.12 in NE 3.0 mph 8.0 mph 55% 0.00 in
12:59 78.3 °F 62.8 °F 30.12 in NE 2.0 mph 8.0 mph 59% 0.00 in
13:04 78.1 °F 62.6 °F 30.12 in NW 2.0 mph 4.0 mph 59% 0.00 in
13:09 78.1 °F 61.6 °F 30.12 in NW 2.0 mph 6.0 mph 57% 0.00 in
13:14 78.1 °F 61.6 °F 30.12 in North 2.0 mph 8.0 mph 57% 0.00 in
13:19 78.2 °F 61.7 °F 30.11 in North 3.0 mph 8.0 mph 57% 0.00 in
13:24 78.6 °F 62.1 °F 30.11 in North 2.0 mph 5.0 mph 57% 0.00 in
13:29 78.4 °F 61.4 °F 30.11 in NW 1.0 mph 7.0 mph 56% 0.00 in
13:34 79.3 °F 63.2 °F 30.11 in NNW 2.0 mph 3.0 mph 58% 0.00 in
13:39 79.1 °F 62.6 °F 30.10 in ENE 1.0 mph 5.0 mph 57% 0.00 in
13:44 79.2 °F 60.6 °F 30.11 in NE 2.0 mph 8.0 mph 53% 0.00 in
13:49 79.3 °F 61.7 °F 30.11 in NE 3.0 mph 8.0 mph 55% 0.00 in
13:54 79.0 °F 60.9 °F 30.11 in NE 3.0 mph 8.0 mph 54% 0.00 in
13:59 79.0 °F 60.9 °F 30.11 in NNE 2.0 mph 7.0 mph 54% 0.00 in
14:09 79.5 °F 59.8 °F 30.10 in ENE 3.0 mph 7.0 mph 51% 0.00 in
14:14 79.8 °F 60.6 °F 30.10 in NE 2.0 mph 8.0 mph 52% 0.00 in
14:19 80.1 °F 59.2 °F 30.11 in NE 3.0 mph 8.0 mph 49% 0.00 in
14:24 80.5 °F 59.6 °F 30.10 in ENE 2.0 mph 5.0 mph 49% 0.00 in
14:29 80.3 °F 60.0 °F 30.10 in North 4.0 mph 4.0 mph 50% 0.00 in
14:34 80.8 °F 59.3 °F 30.10 in NE 4.0 mph 9.0 mph 48% 0.00 in
14:39 80.9 °F 61.1 °F 30.10 in Calm   9.0 mph 51% 0.00 in
14:44 81.4 °F 56.8 °F 30.10 in ENE 3.0 mph 10.0 mph 43% 0.00 in
14:49 81.2 °F 59.1 °F 30.10 in NE 3.0 mph 10.0 mph 47% 0.00 in
14:54 81.6 °F 58.2 °F 30.10 in NE 3.0 mph 9.0 mph 45% 0.00 in
14:59 81.7 °F 57.7 °F 30.10 in NE 2.0 mph 6.0 mph 44% 0.00 in
15:04 81.9 °F 59.7 °F 30.10 in ENE 2.0 mph 6.0 mph 47% 0.00 in
15:09 81.6 °F 57.6 °F 30.10 in NE 2.0 mph 6.0 mph 44% 0.00 in
15:14 81.4 °F 56.8 °F 30.09 in NE 2.0 mph 9.0 mph 43% 0.00 in
15:19 81.8 °F 57.1 °F 30.09 in NE 3.0 mph 9.0 mph 43% 0.00 in
15:24 82.3 °F 56.9 °F 30.09 in ESE 3.0 mph 8.0 mph 42% 0.00 in
15:29 81.4 °F 56.1 °F 30.09 in NE 4.0 mph 8.0 mph 42% 0.00 in
15:34 81.4 °F 57.4 °F 30.09 in ENE 4.0 mph 6.0 mph 44% 0.00 in
15:39 81.5 °F 58.7 °F 30.08 in ENE 2.0 mph 7.0 mph 46% 0.00 in
15:44 81.7 °F 57.0 °F 30.08 in NE 6.0 mph 9.0 mph 43% 0.00 in
15:49 81.8 °F 56.5 °F 30.08 in East 3.0 mph 11.0 mph 42% 0.00 in
15:54 81.7 °F 55.0 °F 30.08 in ENE 5.0 mph 11.0 mph 40% 0.00 in
15:59 81.8 °F 56.5 °F 30.08 in ENE 3.0 mph 8.0 mph 42% 0.00 in
16:04 81.8 °F 54.4 °F 30.08 in ENE 4.0 mph 9.0 mph 39% 0.00 in
16:09 81.7 °F 55.7 °F 30.08 in ENE 4.0 mph 9.0 mph 41% 0.00 in
16:14 81.5 °F 56.2 °F 30.07 in NE 3.0 mph 8.0 mph 42% 0.00 in
16:19 81.8 °F 55.8 °F 30.07 in ENE 7.0 mph 8.0 mph 41% 0.00 in
16:24 81.7 °F 56.4 °F 30.07 in East 6.0 mph 8.0 mph 42% 0.00 in
16:29 81.8 °F 56.5 °F 30.07 in ENE 8.0 mph 8.0 mph 42% 0.00 in
16:34 81.6 °F 56.3 °F 30.07 in ENE 1.0 mph 9.0 mph 42% 0.00 in
16:39 82.0 °F 56.6 °F 30.07 in NE 3.0 mph 7.0 mph 42% 0.00 in
16:44 81.9 °F 57.2 °F 30.07 in East 2.0 mph 7.0 mph 43% 0.00 in
16:49 81.8 °F 56.5 °F 30.07 in ENE 3.0 mph 7.0 mph 42% 0.00 in
16:54 81.8 °F 57.8 °F 30.07 in ENE 3.0 mph 7.0 mph 44% 0.00 in
16:59 81.2 °F 57.2 °F 30.07 in ENE 2.0 mph 7.0 mph 44% 0.00 in
17:04 81.8 °F 55.8 °F 30.06 in East 1.0 mph 4.0 mph 41% 0.00 in
17:09 81.7 °F 57.7 °F 30.06 in East 5.0 mph 6.0 mph 44% 0.00 in
17:14 81.4 °F 57.4 °F 30.06 in ENE 2.0 mph 9.0 mph 44% 0.00 in
17:19 81.1 °F 57.7 °F 30.06 in Calm   7.0 mph 45% 0.00 in
17:24 81.5 °F 55.5 °F 30.06 in ENE 1.0 mph 7.0 mph 41% 0.00 in
17:29 81.4 °F 58.0 °F 30.06 in ENE 1.0 mph 5.0 mph 45% 0.00 in
17:34 81.0 °F 57.0 °F 30.07 in ENE 2.0 mph 5.0 mph 44% 0.00 in
17:39 80.7 °F 56.8 °F 30.06 in ENE 2.0 mph 7.0 mph 44% 0.00 in
17:44 80.6 °F 56.7 °F 30.06 in East 3.0 mph 6.0 mph 44% 0.00 in
17:54 80.3 °F 55.8 °F 30.06 in East 1.0 mph 5.0 mph 43% 0.00 in
17:59 79.9 °F 55.4 °F 30.06 in ENE 4.0 mph 5.0 mph 43% 0.00 in
18:04 79.5 °F 55.7 °F 30.06 in ENE 1.0 mph 5.0 mph 44% 0.00 in
18:09 79.3 °F 54.9 °F 30.07 in Calm   4.0 mph 43% 0.00 in
18:14 78.7 °F 55.6 °F 30.06 in NE 3.0 mph 3.0 mph 45% 0.00 in
18:19 78.9 °F 55.8 °F 30.06 in NE 2.0 mph 3.0 mph 45% 0.00 in
18:24 78.7 °F 56.2 °F 30.07 in NE 2.0 mph 4.0 mph 46% 0.00 in
18:29 78.6 °F 54.9 °F 30.06 in NE 2.0 mph 4.0 mph 44% 0.00 in
18:34 78.5 °F 55.4 °F 30.07 in NE 3.0 mph 7.0 mph 45% 0.00 in
18:39 78.2 °F 55.1 °F 30.07 in NE 2.0 mph 7.0 mph 45% 0.00 in
18:44 78.1 °F 55.0 °F 30.07 in Calm   4.0 mph 45% 0.00 in
18:49 77.5 °F 55.7 °F 30.07 in Calm   1.0 mph 47% 0.00 in
18:54 76.8 °F 55.6 °F 30.07 in ENE 1.0 mph 2.0 mph 48% 0.00 in
18:59 76.2 °F 55.1 °F 30.07 in Calm   2.0 mph 48% 0.00 in
19:04 75.8 °F 54.7 °F 30.07 in Calm     48% 0.00 in
19:09 75.2 °F 54.7 °F 30.07 in Calm     49% 0.00 in
19:14 74.9 °F 55.0 °F 30.07 in Calm   2.0 mph 50% 0.00 in
19:19 74.4 °F 54.5 °F 30.07 in Calm   2.0 mph 50% 0.00 in
19:24 73.9 °F 55.2 °F 30.07 in Calm   1.0 mph 52% 0.00 in
19:29 73.6 °F 54.9 °F 30.07 in Calm   1.0 mph 52% 0.00 in
19:34 73.3 °F 54.6 °F 30.08 in Calm     52% 0.00 in
19:39 73.1 °F 54.9 °F 30.08 in Calm     53% 0.00 in
19:44 72.7 °F 55.1 °F 30.08 in Calm     54% 0.00 in
19:49 72.4 °F 55.3 °F 30.08 in Calm     55% 0.00 in
19:54 72.1 °F 55.0 °F 30.08 in Calm     55% 0.00 in
19:59 71.9 °F 54.9 °F 30.08 in Calm     55% 0.00 in
20:04 71.5 °F 55.0 °F 30.08 in Calm     56% 0.00 in
20:09 71.1 °F 55.1 °F 30.08 in Calm     57% 0.00 in
20:14 71.0 °F 55.5 °F 30.08 in Calm     58% 0.00 in
20:19 70.8 °F 55.3 °F 30.08 in Calm     58% 0.00 in
20:24 70.4 °F 55.4 °F 30.08 in Calm     59% 0.00 in
20:29 70.1 °F 55.6 °F 30.08 in Calm     60% 0.00 in
20:34 69.9 °F 55.8 °F 30.07 in Calm     61% 0.00 in
20:39 69.7 °F 56.1 °F 30.08 in Calm     62% 0.00 in
20:44 69.7 °F 56.5 °F 30.08 in Calm     63% 0.00 in
20:49 69.5 °F 56.3 °F 30.08 in Calm     63% 0.00 in
20:54 69.4 °F 56.3 °F 30.08 in Calm     63% 0.00 in
20:59 69.3 °F 56.2 °F 30.08 in Calm     63% 0.00 in
21:04 69.5 °F 56.3 °F 30.08 in Calm     63% 0.00 in
21:09 69.5 °F 56.8 °F 30.08 in Calm     64% 0.00 in
21:14 69.6 °F 56.9 °F 30.07 in Calm     64% 0.00 in
21:19 69.7 °F 57.0 °F 30.07 in Calm     64% 0.00 in
21:24 69.5 °F 57.2 °F 30.07 in Calm     65% 0.00 in
21:29 69.2 °F 57.4 °F 30.07 in Calm     66% 0.00 in
21:34 68.9 °F 57.5 °F 30.07 in Calm     67% 0.00 in
21:39 68.9 °F 57.5 °F 30.07 in Calm     67% 0.00 in
21:44 68.9 °F 57.5 °F 30.07 in Calm     67% 0.00 in
21:49 68.7 °F 57.7 °F 30.07 in Calm     68% 0.00 in
21:54 68.5 °F 57.5 °F 30.07 in Calm     68% 0.00 in
21:59 68.2 °F 57.6 °F 30.08 in Calm     69% 0.00 in
22:04 68.0 °F 57.4 °F 30.08 in Calm     69% 0.00 in
22:09 67.9 °F 57.4 °F 30.08 in Calm     69% 0.00 in
22:14 67.6 °F 57.5 °F 30.08 in Calm     70% 0.00 in
22:19 67.3 °F 57.2 °F 30.08 in Calm     70% 0.00 in
22:24 67.3 °F 57.2 °F 30.08 in Calm   1.0 mph 70% 0.00 in
22:29 67.3 °F 57.2 °F 30.08 in Calm     70% 0.00 in
22:34 66.8 °F 57.1 °F 30.08 in Calm     71% 0.00 in
22:39 66.3 °F 57.0 °F 30.08 in Calm     72% 0.00 in
22:44 65.9 °F 57.0 °F 30.09 in Calm     73% 0.00 in
22:49 65.6 °F 56.7 °F 30.08 in Calm     73% 0.00 in
22:54 65.8 °F 56.9 °F 30.09 in Calm     73% 0.00 in
22:59 65.9 °F 57.0 °F 30.08 in Calm     73% 0.00 in
23:04 66.0 °F 57.1 °F 30.08 in Calm     73% 0.00 in
23:09 65.8 °F 56.9 °F 30.08 in Calm     73% 0.00 in
23:14 65.6 °F 57.1 °F 30.08 in Calm     74% 0.00 in
23:19 65.6 °F 57.1 °F 30.07 in Calm     74% 0.00 in
23:24 65.4 °F 56.9 °F 30.08 in Calm     74% 0.00 in
23:29 65.0 °F 56.9 °F 30.08 in Calm     75% 0.00 in
23:34 64.7 °F 56.6 °F 30.08 in Calm     75% 0.00 in
23:39 64.6 °F 56.9 °F 30.08 in Calm     76% 0.00 in
23:44 64.6 °F 56.9 °F 30.08 in Calm     76% 0.00 in
23:49 64.5 °F 56.8 °F 30.08 in Calm     76% 0.00 in
23:54 64.2 °F 56.5 °F 30.08 in Calm     76% 0.00 in
23:59 64.0 °F 56.6 °F 30.08 in Calm     77% 0.00 in
Buffalo, New York, USA
Compliments of Weather Underground - 2.5 mb